sensor_id;sensor_type;location;lat;lon;timestamp;pressure;altitude;pressure_sealevel;temperature;humidity
62402;BME280;48440;51.224;22.506;2023-02-20T00:00:36;99273.84;;;1.57;59.32
62402;BME280;48440;51.224;22.506;2023-02-20T00:03:03;99277.13;;;1.59;59.12
62402;BME280;48440;51.224;22.506;2023-02-20T00:05:29;99273.88;;;1.64;59.38
62402;BME280;48440;51.224;22.506;2023-02-20T00:07:55;99271.38;;;1.56;59.49
62402;BME280;48440;51.224;22.506;2023-02-20T00:10:23;99270.97;;;1.59;59.76
62402;BME280;48440;51.224;22.506;2023-02-20T00:12:51;99262.53;;;1.62;59.51
62402;BME280;48440;51.224;22.506;2023-02-20T00:15:26;99257.19;;;1.55;59.82
62402;BME280;48440;51.224;22.506;2023-02-20T00:17:51;99257.59;;;1.59;59.18
62402;BME280;48440;51.224;22.506;2023-02-20T00:20:20;99249.31;;;1.47;59.79
62402;BME280;48440;51.224;22.506;2023-02-20T00:22:49;99255.09;;;1.51;59.93
62402;BME280;48440;51.224;22.506;2023-02-20T00:25:16;99244.84;;;1.54;60.18
62402;BME280;48440;51.224;22.506;2023-02-20T00:27:42;99239.28;;;1.62;60.07
62402;BME280;48440;51.224;22.506;2023-02-20T00:30:18;99246.94;;;1.65;60.16
62402;BME280;48440;51.224;22.506;2023-02-20T00:32:46;99253.31;;;1.64;60.06
62402;BME280;48440;51.224;22.506;2023-02-20T00:35:21;99248.97;;;1.63;60.46
62402;BME280;48440;51.224;22.506;2023-02-20T00:37:55;99252.28;;;1.65;60.45
62402;BME280;48440;51.224;22.506;2023-02-20T00:40:23;99251.66;;;1.63;60.57
62402;BME280;48440;51.224;22.506;2023-02-20T00:42:49;99261.91;;;1.60;60.93
62402;BME280;48440;51.224;22.506;2023-02-20T00:45:18;99252.47;;;1.64;60.92
62402;BME280;48440;51.224;22.506;2023-02-20T00:47:44;99256.56;;;1.60;61.03
62402;BME280;48440;51.224;22.506;2023-02-20T00:50:12;99268.28;;;1.59;61.09
62402;BME280;48440;51.224;22.506;2023-02-20T00:52:38;99265.41;;;1.60;61.29
62402;BME280;48440;51.224;22.506;2023-02-20T00:55:04;99271.38;;;1.56;61.46
62402;BME280;48440;51.224;22.506;2023-02-20T00:57:30;99265.22;;;1.55;61.86
62402;BME280;48440;51.224;22.506;2023-02-20T00:59:57;99256.97;;;1.57;61.99
62402;BME280;48440;51.224;22.506;2023-02-20T01:02:26;99259.25;;;1.60;61.89
62402;BME280;48440;51.224;22.506;2023-02-20T01:04:51;99262.94;;;1.59;61.74
62402;BME280;48440;51.224;22.506;2023-02-20T01:07:18;99268.34;;;1.65;62.24
62402;BME280;48440;51.224;22.506;2023-02-20T01:09:43;99269.97;;;1.66;61.71
62402;BME280;48440;51.224;22.506;2023-02-20T01:12:09;99266.88;;;1.63;61.83
62402;BME280;48440;51.224;22.506;2023-02-20T01:14:35;99261.91;;;1.60;61.68
62402;BME280;48440;51.224;22.506;2023-02-20T01:17:01;99272.03;;;1.64;61.77
62402;BME280;48440;51.224;22.506;2023-02-20T01:19:27;99272.81;;;1.58;62.10
62402;BME280;48440;51.224;22.506;2023-02-20T01:21:53;99270.34;;;1.57;62.52
62402;BME280;48440;51.224;22.506;2023-02-20T01:24:19;99275.69;;;1.57;62.76
62402;BME280;48440;51.224;22.506;2023-02-20T01:26:46;99266.03;;;1.62;62.22
62402;BME280;48440;51.224;22.506;2023-02-20T01:29:12;99268.09;;;1.54;61.85
62402;BME280;48440;51.224;22.506;2023-02-20T01:31:38;99262.69;;;1.47;62.58
62402;BME280;48440;51.224;22.506;2023-02-20T01:34:04;99260.44;;;1.51;63.04
62402;BME280;48440;51.224;22.506;2023-02-20T01:36:30;99260.44;;;1.51;62.27
62402;BME280;48440;51.224;22.506;2023-02-20T01:38:56;99260.66;;;1.49;62.23
62402;BME280;48440;51.224;22.506;2023-02-20T01:41:22;99241.09;;;1.49;62.23
62402;BME280;48440;51.224;22.506;2023-02-20T01:43:49;99248.50;;;1.47;62.88
62402;BME280;48440;51.224;22.506;2023-02-20T01:49:02;99235.13;;;1.47;62.71
62402;BME280;48440;51.224;22.506;2023-02-20T01:51:31;99233.25;;;1.47;63.11
62402;BME280;48440;51.224;22.506;2023-02-20T01:53:58;99235.94;;;1.47;63.31
62402;BME280;48440;51.224;22.506;2023-02-20T01:56:24;99228.75;;;1.48;63.49
62402;BME280;48440;51.224;22.506;2023-02-20T01:58:50;99238.41;;;1.49;63.56
62402;BME280;48440;51.224;22.506;2023-02-20T02:01:19;99227.53;;;1.50;63.72
62402;BME280;48440;51.224;22.506;2023-02-20T02:03:48;99221.34;;;1.50;63.38
62402;BME280;48440;51.224;22.506;2023-02-20T02:06:17;99224.22;;;1.48;64.05
62402;BME280;48440;51.224;22.506;2023-02-20T02:08:43;99225.25;;;1.47;64.15
62402;BME280;48440;51.224;22.506;2023-02-20T02:11:13;99246.00;;;1.45;64.86
62402;BME280;48440;51.224;22.506;2023-02-20T02:13:41;99230.78;;;1.46;65.37
62402;BME280;48440;51.224;22.506;2023-02-20T02:39:22;99230.59;;;1.47;66.42
62402;BME280;48440;51.224;22.506;2023-02-20T02:42:14;99214.34;;;1.49;67.14
62402;BME280;48440;51.224;22.506;2023-02-20T02:44:52;99210.03;;;1.48;66.98
62402;BME280;48440;51.224;22.506;2023-02-20T02:47:39;99208.56;;;1.45;67.60
62402;BME280;48440;51.224;22.506;2023-02-20T02:50:16;99214.09;;;1.44;67.62
62402;BME280;48440;51.224;22.506;2023-02-20T02:52:44;99209.59;;;1.44;67.29
62402;BME280;48440;51.224;22.506;2023-02-20T02:55:19;99208.16;;;1.48;67.24
62402;BME280;48440;51.224;22.506;2023-02-20T02:57:45;99212.31;;;1.51;66.98
62402;BME280;48440;51.224;22.506;2023-02-20T03:06:09;99213.28;;;1.43;66.80
62402;BME280;48440;51.224;22.506;2023-02-20T03:08:43;99201.56;;;1.44;66.81
62402;BME280;48440;51.224;22.506;2023-02-20T03:11:15;99207.78;;;1.51;66.18
62402;BME280;48440;51.224;22.506;2023-02-20T03:16:36;99196.22;;;1.44;65.67
62402;BME280;48440;51.224;22.506;2023-02-20T03:19:09;99199.53;;;1.46;65.65
62402;BME280;48440;51.224;22.506;2023-02-20T03:21:40;99200.53;;;1.45;65.38
62402;BME280;48440;51.224;22.506;2023-02-20T03:24:32;99197.91;;;1.52;64.73
62402;BME280;48440;51.224;22.506;2023-02-20T03:27:25;99191.94;;;1.50;64.07
62402;BME280;48440;51.224;22.506;2023-02-20T03:29:56;99201.16;;;1.47;64.55
62402;BME280;48440;51.224;22.506;2023-02-20T03:35:35;99201.56;;;1.44;64.31
62402;BME280;48440;51.224;22.506;2023-02-20T03:38:33;99196.41;;;1.43;64.09
62402;BME280;48440;51.224;22.506;2023-02-20T03:41:21;99186.97;;;1.47;63.89
62402;BME280;48440;51.224;22.506;2023-02-20T03:44:25;99207.75;;;1.45;64.20
62402;BME280;48440;51.224;22.506;2023-02-20T03:47:38;99213.53;;;1.48;63.90
62402;BME280;48440;51.224;22.506;2023-02-20T03:50:11;99208.56;;;1.45;64.15
62402;BME280;48440;51.224;22.506;2023-02-20T03:52:38;99199.53;;;1.46;64.47
62402;BME280;48440;51.224;22.506;2023-02-20T03:55:09;99204.88;;;1.46;64.17
62402;BME280;48440;51.224;22.506;2023-02-20T03:57:44;99202.19;;;1.46;63.84
62402;BME280;48440;51.224;22.506;2023-02-20T04:00:26;99205.50;;;1.48;63.62
62402;BME280;48440;51.224;22.506;2023-02-20T04:02:57;99205.50;;;1.48;63.80
62402;BME280;48440;51.224;22.506;2023-02-20T04:05:31;99206.31;;;1.49;63.91
62402;BME280;48440;51.224;22.506;2023-02-20T04:08:09;99204.47;;;1.49;63.98
62402;BME280;48440;51.224;22.506;2023-02-20T04:11:00;99208.38;;;1.47;64.32
62402;BME280;48440;51.224;22.506;2023-02-20T04:13:32;99204.66;;;1.48;64.52
62402;BME280;48440;51.224;22.506;2023-02-20T04:16:13;99196.69;;;1.54;64.52
62402;BME280;48440;51.224;22.506;2023-02-20T04:19:02;99198.34;;;1.55;63.95
62402;BME280;48440;51.224;22.506;2023-02-20T04:22:04;99196.06;;;1.59;64.15
62402;BME280;48440;51.224;22.506;2023-02-20T04:27:51;99188.22;;;1.57;64.42
62402;BME280;48440;51.224;22.506;2023-02-20T04:30:19;99198.94;;;1.57;64.46
62402;BME280;48440;51.224;22.506;2023-02-20T04:32:47;99191.13;;;1.56;64.44
62402;BME280;48440;51.224;22.506;2023-02-20T04:35:20;99186.59;;;1.56;64.71
62402;BME280;48440;51.224;22.506;2023-02-20T04:37:46;99182.28;;;1.55;64.53
62402;BME280;48440;51.224;22.506;2023-02-20T04:40:16;99181.47;;;1.55;64.94
62402;BME280;48440;51.224;22.506;2023-02-20T04:42:42;99178.34;;;1.51;64.84
62402;BME280;48440;51.224;22.506;2023-02-20T04:45:11;99176.13;;;1.55;64.56
62402;BME280;48440;51.224;22.506;2023-02-20T04:47:42;99178.78;;;1.55;64.64
62402;BME280;48440;51.224;22.506;2023-02-20T04:50:09;99176.31;;;1.53;64.95
62402;BME280;48440;51.224;22.506;2023-02-20T04:52:38;99175.50;;;1.53;64.56
62402;BME280;48440;51.224;22.506;2023-02-20T04:55:06;99177.72;;;1.49;65.05
62402;BME280;48440;51.224;22.506;2023-02-20T04:57:32;99181.88;;;1.52;64.69
62402;BME280;48440;51.224;22.506;2023-02-20T04:59:58;99178.34;;;1.51;64.26
62402;BME280;48440;51.224;22.506;2023-02-20T05:02:23;99170.53;;;1.50;64.61
62402;BME280;48440;51.224;22.506;2023-02-20T05:04:50;99165.56;;;1.47;64.39
62402;BME280;48440;51.224;22.506;2023-02-20T05:07:20;99167.63;;;1.45;64.47
62402;BME280;48440;51.224;22.506;2023-02-20T05:09:46;99172.16;;;1.44;64.43
62402;BME280;48440;51.224;22.506;2023-02-20T05:12:12;99171.31;;;1.44;64.56
62402;BME280;48440;51.224;22.506;2023-02-20T05:14:38;99169.66;;;1.43;64.55
62402;BME280;48440;51.224;22.506;2023-02-20T05:17:04;99158.97;;;1.43;64.93
62402;BME280;48440;51.224;22.506;2023-02-20T05:19:30;99159.81;;;1.43;64.64
62402;BME280;48440;51.224;22.506;2023-02-20T05:21:55;99165.56;;;1.47;63.79
62402;BME280;48440;51.224;22.506;2023-02-20T05:24:42;99168.66;;;1.44;63.85
62402;BME280;48440;51.224;22.506;2023-02-20T05:27:10;99167.19;;;1.41;63.98
62402;BME280;48440;51.224;22.506;2023-02-20T05:29:36;99180.31;;;1.36;63.75
62402;BME280;48440;51.224;22.506;2023-02-20T05:32:02;99170.47;;;1.36;63.53
62402;BME280;48440;51.224;22.506;2023-02-20T05:34:28;99176.41;;;1.32;63.58
62402;BME280;48440;51.224;22.506;2023-02-20T05:36:53;99168.59;;;1.37;63.30
62402;BME280;48440;51.224;22.506;2023-02-20T05:39:21;99179.06;;;1.32;63.76
62402;BME280;48440;51.224;22.506;2023-02-20T05:41:47;99181.16;;;1.30;63.71
62402;BME280;48440;51.224;22.506;2023-02-20T05:44:13;99177.66;;;1.29;63.98
62402;BME280;48440;51.224;22.506;2023-02-20T05:46:40;99171.88;;;1.32;63.07
62402;BME280;48440;51.224;22.506;2023-02-20T05:49:07;99166.34;;;1.34;63.42
62402;BME280;48440;51.224;22.506;2023-02-20T05:51:33;99165.53;;;1.40;62.60
62402;BME280;48440;51.224;22.506;2023-02-20T05:53:58;99169.47;;;1.44;62.33
62402;BME280;48440;51.224;22.506;2023-02-20T05:56:24;99165.94;;;1.37;62.48
62402;BME280;48440;51.224;22.506;2023-02-20T05:58:50;99172.69;;;1.33;62.75
62402;BME280;48440;51.224;22.506;2023-02-20T06:01:22;99180.91;;;1.31;63.03
62402;BME280;48440;51.224;22.506;2023-02-20T06:03:48;99180.13;;;1.38;62.77
62402;BME280;48440;51.224;22.506;2023-02-20T06:06:15;99180.31;;;1.36;63.25
62402;BME280;48440;51.224;22.506;2023-02-20T06:08:41;99187.72;;;1.34;63.00
62402;BME280;48440;51.224;22.506;2023-02-20T06:11:09;99188.75;;;1.33;63.60
62402;BME280;48440;51.224;22.506;2023-02-20T06:13:41;99187.91;;;1.32;63.60
62402;BME280;48440;51.224;22.506;2023-02-20T06:16:12;99190.00;;;1.37;63.45
62402;BME280;48440;51.224;22.506;2023-02-20T06:18:42;99182.84;;;1.44;63.64
62402;BME280;48440;51.224;22.506;2023-02-20T06:21:10;99186.38;;;1.51;62.88
62402;BME280;48440;51.224;22.506;2023-02-20T06:23:52;99179.38;;;1.57;62.79
62402;BME280;48440;51.224;22.506;2023-02-20T06:26:21;99177.97;;;1.61;62.57
62402;BME280;48440;51.224;22.506;2023-02-20T06:42:02;99168.34;;;1.73;61.57
62402;BME280;48440;51.224;22.506;2023-02-20T06:44:58;99175.78;;;1.78;61.70
62402;BME280;48440;51.224;22.506;2023-02-20T06:47:35;99175.16;;;1.76;61.21
62402;BME280;48440;51.224;22.506;2023-02-20T06:50:05;99179.28;;;1.78;61.83
62402;BME280;48440;51.224;22.506;2023-02-20T06:53:21;99165.69;;;1.86;61.01
62402;BME280;48440;51.224;22.506;2023-02-20T06:59:23;99166.94;;;1.84;62.11
62402;BME280;48440;51.224;22.506;2023-02-20T07:05:03;99162.44;;;1.97;60.64
62402;BME280;48440;51.224;22.506;2023-02-20T07:07:29;99169.25;;;2.00;61.01
62402;BME280;48440;51.224;22.506;2023-02-20T07:10:11;99162.66;;;1.96;61.37
62402;BME280;48440;51.224;22.506;2023-02-20T07:13:00;99158.53;;;2.00;60.72
62402;BME280;48440;51.224;22.506;2023-02-20T07:15:46;99149.72;;;2.06;61.07
62402;BME280;48440;51.224;22.506;2023-02-20T07:18:23;99143.09;;;2.09;60.73
62402;BME280;48440;51.224;22.506;2023-02-20T07:24:35;99138.19;;;2.25;60.37
62402;BME280;48440;51.224;22.506;2023-02-20T07:27:06;99137.56;;;2.23;60.26
62402;BME280;48440;51.224;22.506;2023-02-20T07:29:35;99136.34;;;2.32;60.38
62402;BME280;48440;51.224;22.506;2023-02-20T07:32:08;99127.03;;;2.35;59.98
62402;BME280;48440;51.224;22.506;2023-02-20T07:34:38;99126.31;;;3.12;59.15
62402;BME280;48440;51.224;22.506;2023-02-20T07:37:12;99120.09;;;5.00;54.30
62402;BME280;48440;51.224;22.506;2023-02-20T07:39:53;99127.47;;;6.61;50.03
62402;BME280;48440;51.224;22.506;2023-02-20T07:42:19;99115.81;;;7.31;47.05
62402;BME280;48440;51.224;22.506;2023-02-20T07:44:44;99107.84;;;7.93;45.44
62402;BME280;48440;51.224;22.506;2023-02-20T07:47:13;99099.53;;;8.56;43.85
62402;BME280;48440;51.224;22.506;2023-02-20T07:49:38;99097.63;;;8.73;43.32
62402;BME280;48440;51.224;22.506;2023-02-20T07:52:04;99102.53;;;8.76;43.08
62402;BME280;48440;51.224;22.506;2023-02-20T07:54:29;99102.09;;;9.01;42.21
62402;BME280;48440;51.224;22.506;2023-02-20T07:56:55;99089.69;;;8.50;43.10
62402;BME280;48440;51.224;22.506;2023-02-20T07:59:21;99090.22;;;8.18;44.33
62402;BME280;48440;51.224;22.506;2023-02-20T08:01:47;99095.63;;;8.18;43.66
62402;BME280;48440;51.224;22.506;2023-02-20T08:04:12;99096.00;;;8.10;44.05
62402;BME280;48440;51.224;22.506;2023-02-20T08:06:38;99092.84;;;7.85;44.10
62402;BME280;48440;51.224;22.506;2023-02-20T08:09:03;99093.91;;;7.56;45.86
62402;BME280;48440;51.224;22.506;2023-02-20T08:11:32;99091.56;;;7.19;45.77
62402;BME280;48440;51.224;22.506;2023-02-20T08:13:57;99097.34;;;6.99;46.68
62402;BME280;48440;51.224;22.506;2023-02-20T08:16:23;99097.69;;;6.68;46.81
62402;BME280;48440;51.224;22.506;2023-02-20T08:18:51;99101.84;;;6.17;48.67
62402;BME280;48440;51.224;22.506;2023-02-20T08:21:16;99093.38;;;6.02;49.25
62402;BME280;48440;51.224;22.506;2023-02-20T08:23:42;99092.06;;;5.74;50.65
62402;BME280;48440;51.224;22.506;2023-02-20T08:26:08;99076.66;;;5.52;51.86
62402;BME280;48440;51.224;22.506;2023-02-20T08:28:34;99073.91;;;5.22;52.65
62402;BME280;48440;51.224;22.506;2023-02-20T08:30:59;99075.50;;;5.11;52.55
62402;BME280;48440;51.224;22.506;2023-02-20T08:33:25;99076.34;;;4.93;52.42
62402;BME280;48440;51.224;22.506;2023-02-20T08:35:50;99065.09;;;4.78;53.37
62402;BME280;48440;51.224;22.506;2023-02-20T08:38:35;99062.88;;;4.75;53.46
62402;BME280;48440;51.224;22.506;2023-02-20T08:41:06;99053.75;;;4.76;53.38
62402;BME280;48440;51.224;22.506;2023-02-20T08:43:33;99041.00;;;4.90;53.30
62402;BME280;48440;51.224;22.506;2023-02-20T08:45:59;99042.69;;;5.02;53.23
62402;BME280;48440;51.224;22.506;2023-02-20T08:48:24;99049.19;;;5.31;52.30
62402;BME280;48440;51.224;22.506;2023-02-20T08:50:50;99046.28;;;5.74;51.40
62402;BME280;48440;51.224;22.506;2023-02-20T08:53:16;99047.13;;;6.28;50.77
62402;BME280;48440;51.224;22.506;2023-02-20T08:55:42;99040.00;;;6.69;49.33
62402;BME280;48440;51.224;22.506;2023-02-20T08:58:08;99036.66;;;7.13;47.64
62402;BME280;48440;51.224;22.506;2023-02-20T09:00:33;99037.91;;;7.23;47.05
62402;BME280;48440;51.224;22.506;2023-02-20T09:02:59;99024.94;;;7.36;46.91
62402;BME280;48440;51.224;22.506;2023-02-20T09:05:25;99014.47;;;7.52;47.33
62402;BME280;48440;51.224;22.506;2023-02-20T09:07:51;99006.28;;;7.35;47.00
62402;BME280;48440;51.224;22.506;2023-02-20T09:10:20;99018.34;;;7.04;47.59
62402;BME280;48440;51.224;22.506;2023-02-20T09:12:46;99013.63;;;6.59;48.87
62402;BME280;48440;51.224;22.506;2023-02-20T09:15:12;99000.19;;;6.47;49.18
62402;BME280;48440;51.224;22.506;2023-02-20T09:17:43;98999.88;;;6.96;49.35
62402;BME280;48440;51.224;22.506;2023-02-20T09:20:10;98974.69;;;7.19;48.04
62402;BME280;48440;51.224;22.506;2023-02-20T09:22:36;98977.06;;;7.03;48.51
62402;BME280;48440;51.224;22.506;2023-02-20T09:25:02;98974.59;;;7.02;49.06
62402;BME280;48440;51.224;22.506;2023-02-20T09:27:29;98978.56;;;6.59;49.65
62402;BME280;48440;51.224;22.506;2023-02-20T09:29:54;98983.50;;;6.51;50.21
62402;BME280;48440;51.224;22.506;2023-02-20T09:32:20;98982.00;;;6.20;51.71
62402;BME280;48440;51.224;22.506;2023-02-20T09:34:45;98983.81;;;5.84;52.51
62402;BME280;48440;51.224;22.506;2023-02-20T09:37:11;98978.47;;;5.54;53.55
62402;BME280;48440;51.224;22.506;2023-02-20T09:39:36;98957.47;;;5.33;54.24
62402;BME280;48440;51.224;22.506;2023-02-20T09:49:48;98929.72;;;4.72;56.20
62402;BME280;48440;51.224;22.506;2023-02-20T09:52:15;98923.25;;;4.62;56.67
62402;BME280;48440;51.224;22.506;2023-02-20T09:54:53;98905.25;;;4.62;56.83
62402;BME280;48440;51.224;22.506;2023-02-20T09:57:24;98903.69;;;4.55;56.73
62402;BME280;48440;51.224;22.506;2023-02-20T10:02:36;98903.53;;;4.50;57.73
62402;BME280;48440;51.224;22.506;2023-02-20T10:05:12;98890.44;;;4.41;58.30
62402;BME280;48440;51.224;22.506;2023-02-20T10:07:40;98882.22;;;4.36;58.21
62402;BME280;48440;51.224;22.506;2023-02-20T10:10:24;98873.78;;;4.33;59.32
62402;BME280;48440;51.224;22.506;2023-02-20T10:18:03;98851.03;;;4.35;60.52
62402;BME280;48440;51.224;22.506;2023-02-20T10:20:38;98852.06;;;4.34;61.04
62402;BME280;48440;51.224;22.506;2023-02-20T10:23:21;98852.28;;;4.33;61.40
62402;BME280;48440;51.224;22.506;2023-02-20T10:25:58;98854.22;;;4.26;61.61
62402;BME280;48440;51.224;22.506;2023-02-20T10:28:25;98842.06;;;4.23;62.49
62402;BME280;48440;51.224;22.506;2023-02-20T10:33:39;98840.59;;;4.09;63.66
62402;BME280;48440;51.224;22.506;2023-02-20T10:36:13;98826.78;;;4.05;64.65
62402;BME280;48440;51.224;22.506;2023-02-20T10:38:54;98814.84;;;4.01;65.07
62402;BME280;48440;51.224;22.506;2023-02-20T10:44:01;98797.31;;;3.99;65.62
62402;BME280;48440;51.224;22.506;2023-02-20T10:46:31;98790.16;;;3.93;66.58
62402;BME280;48440;51.224;22.506;2023-02-20T10:49:04;98779.19;;;3.94;66.85
62402;BME280;48440;51.224;22.506;2023-02-20T10:51:35;98774.41;;;3.96;66.75
62402;BME280;48440;51.224;22.506;2023-02-20T10:54:07;98769.50;;;3.93;67.14
62402;BME280;48440;51.224;22.506;2023-02-20T10:56:53;98763.78;;;3.90;67.73
62402;BME280;48440;51.224;22.506;2023-02-20T11:00:12;98743.91;;;3.91;68.20
62402;BME280;48440;51.224;22.506;2023-02-20T11:02:52;98736.94;;;3.90;68.00
62402;BME280;48440;51.224;22.506;2023-02-20T11:05:23;98736.13;;;3.89;67.49
62402;BME280;48440;51.224;22.506;2023-02-20T11:07:50;98728.97;;;3.83;67.91
62402;BME280;48440;51.224;22.506;2023-02-20T11:10:17;98718.66;;;3.80;67.37
62402;BME280;48440;51.224;22.506;2023-02-20T11:12:56;98718.88;;;3.79;67.41
62402;BME280;48440;51.224;22.506;2023-02-20T11:15:28;98705.03;;;3.82;67.20
62402;BME280;48440;51.224;22.506;2023-02-20T11:17:57;98695.41;;;3.74;67.16
62402;BME280;48440;51.224;22.506;2023-02-20T11:28:43;98658.44;;;3.76;67.71
62402;BME280;48440;51.224;22.506;2023-02-20T11:31:09;98649.41;;;3.70;67.78
62402;BME280;48440;51.224;22.506;2023-02-20T11:33:45;98655.44;;;3.66;68.63
62402;BME280;48440;51.224;22.506;2023-02-20T11:36:17;98638.06;;;3.68;69.20
62402;BME280;48440;51.224;22.506;2023-02-20T11:38:44;98630.47;;;3.65;69.53
62402;BME280;48440;51.224;22.506;2023-02-20T11:46:38;98609.66;;;3.49;70.83
62402;BME280;48440;51.224;22.506;2023-02-20T11:49:11;98609.50;;;3.44;71.62
62402;BME280;48440;51.224;22.506;2023-02-20T11:51:47;98599.00;;;3.42;72.31
62402;BME280;48440;51.224;22.506;2023-02-20T11:54:25;98588.72;;;3.39;72.37
62402;BME280;48440;51.224;22.506;2023-02-20T11:59:35;98573.25;;;3.23;73.62
62402;BME280;48440;51.224;22.506;2023-02-20T12:10:02;98558.88;;;3.18;75.10
62402;BME280;48440;51.224;22.506;2023-02-20T12:12:31;98552.09;;;3.15;75.95
62402;BME280;48440;51.224;22.506;2023-02-20T12:14:57;98554.31;;;3.18;75.45
62402;BME280;48440;51.224;22.506;2023-02-20T12:22:37;98531.47;;;3.16;76.48
62402;BME280;48440;51.224;22.506;2023-02-20T12:28:08;98522.75;;;3.20;76.72
62402;BME280;48440;51.224;22.506;2023-02-20T12:37:30;98491.94;;;3.11;78.09
62402;BME280;48440;51.224;22.506;2023-02-20T12:43:07;98484.03;;;3.16;77.69
62402;BME280;48440;51.224;22.506;2023-02-20T12:45:41;98469.13;;;3.20;77.90
62402;BME280;48440;51.224;22.506;2023-02-20T12:59:30;98378.69;;;2.97;79.14
62402;BME280;48440;51.224;22.506;2023-02-20T13:02:13;98298.38;;;2.91;79.77
62402;BME280;48440;51.224;22.506;2023-02-20T13:04:49;98332.06;;;2.87;79.94
62402;BME280;48440;51.224;22.506;2023-02-20T13:07:21;98338.00;;;2.89;80.19
62402;BME280;48440;51.224;22.506;2023-02-20T13:12:21;98361.81;;;2.97;79.85
62402;BME280;48440;51.224;22.506;2023-02-20T13:21:02;98353.91;;;3.02;80.13
62402;BME280;48440;51.224;22.506;2023-02-20T13:23:33;98345.50;;;2.98;80.29
62402;BME280;48440;51.224;22.506;2023-02-20T13:26:00;98344.44;;;2.99;80.11
62402;BME280;48440;51.224;22.506;2023-02-20T13:28:38;98330.22;;;2.99;80.16
62402;BME280;48440;51.224;22.506;2023-02-20T13:31:22;98311.69;;;2.97;80.10
62402;BME280;48440;51.224;22.506;2023-02-20T13:36:45;98295.84;;;2.96;80.62
62402;BME280;48440;51.224;22.506;2023-02-20T13:47:03;98257.63;;;3.12;80.99
62402;BME280;48440;51.224;22.506;2023-02-20T14:00:21;98222.09;;;3.28;81.29
62402;BME280;48440;51.224;22.506;2023-02-20T14:02:48;98182.47;;;3.30;81.43
62402;BME280;48440;51.224;22.506;2023-02-20T14:05:27;98178.16;;;3.29;81.84
62402;BME280;48440;51.224;22.506;2023-02-20T14:07:53;98182.81;;;3.34;81.93
62402;BME280;48440;51.224;22.506;2023-02-20T14:10:34;98165.53;;;3.41;81.41
62402;BME280;48440;51.224;22.506;2023-02-20T14:13:02;98160.03;;;3.48;81.45
62402;BME280;48440;51.224;22.506;2023-02-20T14:15:32;98142.41;;;3.52;81.72
62402;BME280;48440;51.224;22.506;2023-02-20T14:17:58;98142.75;;;3.56;81.55
62402;BME280;48440;51.224;22.506;2023-02-20T14:20:31;98132.38;;;3.59;81.22
62402;BME280;48440;51.224;22.506;2023-02-20T14:23:16;98130.84;;;3.63;81.06
62402;BME280;48440;51.224;22.506;2023-02-20T14:28:19;98135.34;;;3.74;80.33
62402;BME280;48440;51.224;22.506;2023-02-20T14:30:45;98134.88;;;3.78;80.27
62402;BME280;48440;51.224;22.506;2023-02-20T14:33:30;98142.78;;;3.84;80.13
62402;BME280;48440;51.224;22.506;2023-02-20T14:41:21;98139.94;;;3.91;80.28
62402;BME280;48440;51.224;22.506;2023-02-20T14:43:56;98162.56;;;3.95;79.88
62402;BME280;48440;51.224;22.506;2023-02-20T14:46:25;98177.63;;;3.96;79.44
62402;BME280;48440;51.224;22.506;2023-02-20T14:49:14;98186.50;;;3.96;79.67
62402;BME280;48440;51.224;22.506;2023-02-20T14:51:41;98188.94;;;3.98;79.65
62402;BME280;48440;51.224;22.506;2023-02-20T14:54:20;98183.34;;;3.99;79.65
62402;BME280;48440;51.224;22.506;2023-02-20T14:56:47;98186.50;;;3.96;80.08
62402;BME280;48440;51.224;22.506;2023-02-20T15:02:10;98159.41;;;3.98;79.86
62402;BME280;48440;51.224;22.506;2023-02-20T15:04:36;98179.03;;;3.98;79.91
62402;BME280;48440;51.224;22.506;2023-02-20T15:07:10;98175.03;;;4.01;79.47
62402;BME280;48440;51.224;22.506;2023-02-20T15:09:42;98147.97;;;4.02;79.27
62402;BME280;48440;51.224;22.506;2023-02-20T15:12:20;98135.53;;;4.13;79.03
62402;BME280;48440;51.224;22.506;2023-02-20T15:14:53;98137.47;;;4.18;78.12
62402;BME280;48440;51.224;22.506;2023-02-20T15:17:24;98124.06;;;4.18;78.59
62402;BME280;48440;51.224;22.506;2023-02-20T15:19:50;98135.94;;;4.22;78.26
62402;BME280;48440;51.224;22.506;2023-02-20T15:22:34;98115.03;;;4.24;77.74
62402;BME280;48440;51.224;22.506;2023-02-20T15:33:26;98112.22;;;4.30;77.51
62402;BME280;48440;51.224;22.506;2023-02-20T15:35:52;98089.91;;;4.30;77.23
62402;BME280;48440;51.224;22.506;2023-02-20T15:38:17;98092.44;;;4.36;77.23
62402;BME280;48440;51.224;22.506;2023-02-20T15:40:43;98080.63;;;4.37;76.78
62402;BME280;48440;51.224;22.506;2023-02-20T15:43:12;98068.34;;;4.41;76.90
62402;BME280;48440;51.224;22.506;2023-02-20T15:45:39;98068.34;;;4.41;76.83
62402;BME280;48440;51.224;22.506;2023-02-20T15:48:06;98063.75;;;4.42;77.01
62402;BME280;48440;51.224;22.506;2023-02-20T15:50:34;98049.03;;;4.44;77.07
62402;BME280;48440;51.224;22.506;2023-02-20T15:53:01;98068.72;;;4.50;76.60
62402;BME280;48440;51.224;22.506;2023-02-20T15:55:33;98064.25;;;4.56;76.51
62402;BME280;48440;51.224;22.506;2023-02-20T15:58:11;98050.25;;;4.54;76.20
62402;BME280;48440;51.224;22.506;2023-02-20T16:00:43;98054.06;;;4.58;76.11
62402;BME280;48440;51.224;22.506;2023-02-20T16:03:09;98044.38;;;4.57;76.49
62402;BME280;48440;51.224;22.506;2023-02-20T16:05:35;98045.22;;;4.57;76.30
62402;BME280;48440;51.224;22.506;2023-02-20T16:08:00;98032.91;;;4.61;76.13
62402;BME280;48440;51.224;22.506;2023-02-20T16:10:26;98018.66;;;4.61;75.87
62402;BME280;48440;51.224;22.506;2023-02-20T16:12:54;98025.41;;;4.63;76.10
62402;BME280;48440;51.224;22.506;2023-02-20T16:15:21;98013.59;;;4.64;75.84
62402;BME280;48440;51.224;22.506;2023-02-20T16:17:48;97999.94;;;4.66;75.91
62402;BME280;48440;51.224;22.506;2023-02-20T16:20:22;98006.66;;;4.68;76.03
62402;BME280;48440;51.224;22.506;2023-02-20T16:22:48;98012.59;;;4.70;76.11
62402;BME280;48440;51.224;22.506;2023-02-20T16:25:17;98011.94;;;4.80;75.65
62402;BME280;48440;51.224;22.506;2023-02-20T16:27:44;98006.06;;;4.83;75.25